All
Onslow Airport (Onslow, Western Australia) ONS Weather
|
Onslow, Western Australia (ONS / YOLW)
Clear skies
Windy |
|
87 °F |
ONS Terminal Area Forecast
| Date | Time (AWST) | Flight Rules | Wind Dir. | Speed | Type | Height AGL (ft) | Visibility | Remarks | ||||||
|---|---|---|---|---|---|---|---|---|---|---|---|---|---|---|
| 04-May | 06:00PM | VFR | 350° | 14 kt | Clouds and Visibility are OK | >= 6 miles | ||||||||
| 04-May | 05:00PM | VFR | 350° | 14 kt | Clouds and Visibility are OK | >= 6 miles | ||||||||
| 04-May | 04:00PM | VFR | 350° | 14 kt | Clouds and Visibility are OK | >= 6 miles | ||||||||
| 04-May | 03:00PM | VFR | 350° | 14 kt | Clouds and Visibility are OK | >= 6 miles | ||||||||
| 04-May | 02:00PM | VFR | 350° | 14 kt | Clouds and Visibility are OK | >= 6 miles | ||||||||
Recent ONS METAR history
| Date | Time (AWST) | Flight Rules | Wind Dir. | Speed | Type | Height AGL (ft) | Visibility | Temp (°C) | Temp (°F) | Dew Point (°C) | Dew Point (°F) | Rel. Humid. | Pressure | Density Altitude | Remarks |
|---|---|---|---|---|---|---|---|---|---|---|---|---|---|---|---|
| 04-May | 02:00PM | VFR | 10° | 12 kt | 10000 meters | 31° | 87° | 9° | 48° | 26% | 1015 mb | 1,880 ft | |||
| 04-May | 01:00PM | VFR | 20° | 11 kt | 10000 meters | 31° | 87° | 10° | 50° | 27% | 1016 mb | 1,851 ft | |||
| 04-May | 12:00PM | VFR | 50° | 11 kt | 10000 meters | 31° | 87° | 9° | 48° | 26% | 1017 mb | 1,821 ft | |||
| 04-May | 11:00AM | VFR | 60° | 15 kt | 10000 meters | 30° | 86° | 6° | 42° | 22% | 1018 mb | 1,671 ft | |||
| 04-May | 10:00AM | VFR | 80° | 14 kt | 10000 meters | 28° | 82° | 7° | 44° | 27% | 1018 mb | 1,431 ft | |||
| 04-May | 09:00AM | VFR | 80° | 15 kt | 10000 meters | 26° | 78° | 7° | 44° | 30% | 1018 mb | 1,191 ft | |||
| 04-May | 08:00AM | VFR | 90° | 13 kt | 10000 meters | 24° | 75° | 11° | 51° | 44% | 1018 mb | 951 ft | |||
| 04-May | 07:00AM | VFR | 90° | 11 kt | 10000 meters | 23° | 73° | 14° | 57° | 57% | 1017 mb | 861 ft | |||
| 04-May | 06:00AM | VFR | 110° | 9 kt | 10000 meters | 23° | 73° | 20° | 68° | 83% | 1017 mb | 861 ft | |||
| 04-May | 05:00AM | VFR | 100° | 9 kt | 10000 meters | 23° | 73° | 20° | 68° | 83% | 1016 mb | 891 ft | |||
| 04-May | 04:00AM | VFR | 150° | 7 kt | 10000 meters | 23° | 73° | 20° | 68° | 83% | 1016 mb | 891 ft | |||
| 04-May | 03:00AM | VFR | 160° | 10 kt | 10000 meters | 23° | 73° | 21° | 69° | 89% | 1016 mb | 891 ft | |||
| 04-May | 02:00AM | VFR | 180° | 7 kt | 10000 meters | 23° | 73° | 21° | 69° | 89% | 1016 mb | 891 ft | |||
| 04-May | 01:00AM | VFR | 150° | 5 kt | 10000 meters | 23° | 73° | 21° | 69° | 89% | 1016 mb | 891 ft | |||
| 04-May | 12:00AM | VFR | 350° | 3 kt | 10000 meters | 23° | 73° | 21° | 69° | 89% | 1016 mb | 891 ft | |||
| 03-May | 11:00PM | VFR | 350° | 3 kt | 10000 meters | 24° | 75° | 21° | 69° | 83% | 1016 mb | 1,011 ft | |||
| 03-May | 10:00PM | VFR | 350° | 4 kt | 10000 meters | 25° | 77° | 21° | 69° | 79% | 1016 mb | 1,131 ft | |||
| 03-May | 09:00PM | VFR | 360° | 5 kt | 10000 meters | 25° | 77° | 21° | 69° | 79% | 1016 mb | 1,131 ft | |||
| 03-May | 08:00PM | VFR | 360° | 6 kt | 10000 meters | 26° | 78° | 21° | 69° | 74% | 1015 mb | 1,280 ft | |||
| 03-May | 07:00PM | VFR | 350° | 9 kt | 10000 meters | 26° | 78° | 20° | 68° | 70% | 1014 mb | 1,310 ft | |||
| 03-May | 06:00PM | VFR | 350° | 9 kt | 10000 meters | 27° | 80° | 19° | 66° | 62% | 1014 mb | 1,430 ft | |||
| 03-May | 05:00PM | VFR | 360° | 12 kt | 10000 meters | 28° | 82° | 18° | 64° | 55% | 1013 mb | 1,579 ft | |||
| 03-May | 04:00PM | VFR | 10° | 13 kt | 10000 meters | 29° | 84° | 18° | 64° | 52% | 1013 mb | 1,699 ft | |||
| 03-May | 03:00PM | VFR | 20° | 13 kt | 10000 meters | 30° | 86° | 17° | 62° | 46% | 1013 mb | 1,819 ft |
Login
| Your browser is unsupported. upgrade your browser |
